sensor_id;sensor_type;location;lat;lon;timestamp;temperature;humidity
17659;DHT22;8948;51.534;8.262;2023-09-19T00:01:32;18.00;70.20
17659;DHT22;8948;51.534;8.262;2023-09-19T00:06:32;17.90;70.80
17659;DHT22;8948;51.534;8.262;2023-09-19T00:11:33;17.90;70.90
17659;DHT22;8948;51.534;8.262;2023-09-19T00:16:34;17.80;70.80
17659;DHT22;8948;51.534;8.262;2023-09-19T00:21:36;17.60;71.50
17659;DHT22;8948;51.534;8.262;2023-09-19T00:26:38;17.60;71.30
17659;DHT22;8948;51.534;8.262;2023-09-19T00:31:38;17.60;71.30
17659;DHT22;8948;51.534;8.262;2023-09-19T00:36:39;17.60;71.20
17659;DHT22;8948;51.534;8.262;2023-09-19T00:41:40;17.50;71.30
17659;DHT22;8948;51.534;8.262;2023-09-19T00:46:41;17.60;71.20
17659;DHT22;8948;51.534;8.262;2023-09-19T00:51:42;17.60;70.80
17659;DHT22;8948;51.534;8.262;2023-09-19T00:56:46;17.50;70.00
17659;DHT22;8948;51.534;8.262;2023-09-19T01:01:49;17.20;70.10
17659;DHT22;8948;51.534;8.262;2023-09-19T01:06:54;17.20;70.20
17659;DHT22;8948;51.534;8.262;2023-09-19T01:11:58;17.20;69.90
17659;DHT22;8948;51.534;8.262;2023-09-19T01:17:08;17.30;69.60
17659;DHT22;8948;51.534;8.262;2023-09-19T01:32:51;17.00;68.80
17659;DHT22;8948;51.534;8.262;2023-09-19T01:37:52;16.90;69.10
17659;DHT22;8948;51.534;8.262;2023-09-19T01:43:20;16.80;68.70
17659;DHT22;8948;51.534;8.262;2023-09-19T01:48:48;16.80;68.80
17659;DHT22;8948;51.534;8.262;2023-09-19T01:54:04;16.70;68.80
17659;DHT22;8948;51.534;8.262;2023-09-19T01:59:10;16.60;68.70
17659;DHT22;8948;51.534;8.262;2023-09-19T02:04:12;16.50;69.30
17659;DHT22;8948;51.534;8.262;2023-09-19T02:09:13;16.40;68.90
17659;DHT22;8948;51.534;8.262;2023-09-19T02:14:14;16.50;68.60
17659;DHT22;8948;51.534;8.262;2023-09-19T02:19:15;16.40;68.80
17659;DHT22;8948;51.534;8.262;2023-09-19T02:24:16;16.30;69.00
17659;DHT22;8948;51.534;8.262;2023-09-19T02:29:16;16.30;69.00
17659;DHT22;8948;51.534;8.262;2023-09-19T02:34:17;16.40;68.60
17659;DHT22;8948;51.534;8.262;2023-09-19T02:39:17;16.30;68.80
17659;DHT22;8948;51.534;8.262;2023-09-19T02:44:18;16.40;68.90
17659;DHT22;8948;51.534;8.262;2023-09-19T02:49:20;16.30;69.30
17659;DHT22;8948;51.534;8.262;2023-09-19T02:54:21;16.40;68.70
17659;DHT22;8948;51.534;8.262;2023-09-19T02:59:22;16.20;69.60
17659;DHT22;8948;51.534;8.262;2023-09-19T03:04:23;16.20;69.50
17659;DHT22;8948;51.534;8.262;2023-09-19T03:09:23;16.10;69.10
17659;DHT22;8948;51.534;8.262;2023-09-19T03:14:24;16.00;69.60
17659;DHT22;8948;51.534;8.262;2023-09-19T03:19:25;16.00;68.60
17659;DHT22;8948;51.534;8.262;2023-09-19T03:24:26;16.00;68.50
17659;DHT22;8948;51.534;8.262;2023-09-19T03:29:27;16.00;68.00
17659;DHT22;8948;51.534;8.262;2023-09-19T03:34:28;15.80;67.60
17659;DHT22;8948;51.534;8.262;2023-09-19T03:39:29;15.80;67.30
17659;DHT22;8948;51.534;8.262;2023-09-19T03:44:30;15.90;67.10
17659;DHT22;8948;51.534;8.262;2023-09-19T03:49:31;15.90;67.20
17659;DHT22;8948;51.534;8.262;2023-09-19T03:54:31;15.80;67.60
17659;DHT22;8948;51.534;8.262;2023-09-19T03:59:32;15.70;67.50
17659;DHT22;8948;51.534;8.262;2023-09-19T04:04:32;15.70;68.00
17659;DHT22;8948;51.534;8.262;2023-09-19T04:09:33;15.60;67.80
17659;DHT22;8948;51.534;8.262;2023-09-19T04:14:34;15.80;70.90
17659;DHT22;8948;51.534;8.262;2023-09-19T04:19:34;16.20;67.50
17659;DHT22;8948;51.534;8.262;2023-09-19T04:24:35;16.20;65.80
17659;DHT22;8948;51.534;8.262;2023-09-19T04:29:36;16.30;67.00
17659;DHT22;8948;51.534;8.262;2023-09-19T04:34:38;16.20;65.80
17659;DHT22;8948;51.534;8.262;2023-09-19T04:39:38;16.10;65.80
17659;DHT22;8948;51.534;8.262;2023-09-19T04:44:39;16.00;65.10
17659;DHT22;8948;51.534;8.262;2023-09-19T04:49:40;16.20;69.00
17659;DHT22;8948;51.534;8.262;2023-09-19T04:54:40;16.10;64.30
17659;DHT22;8948;51.534;8.262;2023-09-19T04:59:41;16.10;67.70
17659;DHT22;8948;51.534;8.262;2023-09-19T05:04:42;16.00;64.10
17659;DHT22;8948;51.534;8.262;2023-09-19T05:09:42;15.70;64.40
17659;DHT22;8948;51.534;8.262;2023-09-19T05:14:43;15.60;64.80
17659;DHT22;8948;51.534;8.262;2023-09-19T05:19:43;15.40;65.40
17659;DHT22;8948;51.534;8.262;2023-09-19T05:24:44;15.40;65.70
17659;DHT22;8948;51.534;8.262;2023-09-19T05:29:48;15.30;65.00
17659;DHT22;8948;51.534;8.262;2023-09-19T05:34:51;15.30;65.30
17659;DHT22;8948;51.534;8.262;2023-09-19T05:39:56;15.30;65.80
17659;DHT22;8948;51.534;8.262;2023-09-19T05:44:57;15.30;66.20
17659;DHT22;8948;51.534;8.262;2023-09-19T05:49:58;15.20;66.90
17659;DHT22;8948;51.534;8.262;2023-09-19T05:55:00;15.20;66.40
17659;DHT22;8948;51.534;8.262;2023-09-19T06:00:00;15.30;66.00
17659;DHT22;8948;51.534;8.262;2023-09-19T06:05:01;15.30;66.50
17659;DHT22;8948;51.534;8.262;2023-09-19T06:10:06;15.30;66.50
17659;DHT22;8948;51.534;8.262;2023-09-19T06:15:12;15.50;66.20
17659;DHT22;8948;51.534;8.262;2023-09-19T06:20:16;15.60;67.20
17659;DHT22;8948;51.534;8.262;2023-09-19T06:25:18;15.70;68.20
17659;DHT22;8948;51.534;8.262;2023-09-19T06:30:23;15.80;66.10
17659;DHT22;8948;51.534;8.262;2023-09-19T06:35:25;15.70;66.90
17659;DHT22;8948;51.534;8.262;2023-09-19T06:40:26;15.70;68.00
17659;DHT22;8948;51.534;8.262;2023-09-19T06:45:28;15.80;67.40
17659;DHT22;8948;51.534;8.262;2023-09-19T06:50:29;15.80;67.80
17659;DHT22;8948;51.534;8.262;2023-09-19T06:55:33;16.00;66.90
17659;DHT22;8948;51.534;8.262;2023-09-19T07:00:34;16.10;68.70
17659;DHT22;8948;51.534;8.262;2023-09-19T07:05:37;16.20;66.20
17659;DHT22;8948;51.534;8.262;2023-09-19T07:10:40;16.30;65.10
17659;DHT22;8948;51.534;8.262;2023-09-19T07:15:41;16.40;67.70
17659;DHT22;8948;51.534;8.262;2023-09-19T07:20:47;16.30;66.30
17659;DHT22;8948;51.534;8.262;2023-09-19T07:25:50;16.40;66.60
17659;DHT22;8948;51.534;8.262;2023-09-19T07:30:51;16.50;67.80
17659;DHT22;8948;51.534;8.262;2023-09-19T07:35:51;16.50;66.60
17659;DHT22;8948;51.534;8.262;2023-09-19T07:40:52;16.40;66.40
17659;DHT22;8948;51.534;8.262;2023-09-19T07:45:52;16.50;66.10
17659;DHT22;8948;51.534;8.262;2023-09-19T07:50:53;16.50;66.90
17659;DHT22;8948;51.534;8.262;2023-09-19T07:56:02;16.70;67.30
17659;DHT22;8948;51.534;8.262;2023-09-19T08:01:08;16.80;66.50
17659;DHT22;8948;51.534;8.262;2023-09-19T08:06:09;16.80;66.30
17659;DHT22;8948;51.534;8.262;2023-09-19T08:11:10;16.90;66.40
17659;DHT22;8948;51.534;8.262;2023-09-19T08:16:13;17.10;67.40
17659;DHT22;8948;51.534;8.262;2023-09-19T08:21:15;17.20;64.30
17659;DHT22;8948;51.534;8.262;2023-09-19T08:26:16;17.50;64.90
17659;DHT22;8948;51.534;8.262;2023-09-19T08:31:17;17.50;64.00
17659;DHT22;8948;51.534;8.262;2023-09-19T08:36:17;17.50;64.00
17659;DHT22;8948;51.534;8.262;2023-09-19T08:41:18;17.50;65.30
17659;DHT22;8948;51.534;8.262;2023-09-19T08:46:20;17.70;63.90
17659;DHT22;8948;51.534;8.262;2023-09-19T08:51:39;17.90;63.70
17659;DHT22;8948;51.534;8.262;2023-09-19T08:56:42;17.90;63.30
17659;DHT22;8948;51.534;8.262;2023-09-19T09:01:43;17.90;62.70
17659;DHT22;8948;51.534;8.262;2023-09-19T09:06:45;18.10;62.50
17659;DHT22;8948;51.534;8.262;2023-09-19T09:11:49;18.20;62.50
17659;DHT22;8948;51.534;8.262;2023-09-19T09:16:53;18.30;62.20
17659;DHT22;8948;51.534;8.262;2023-09-19T09:22:09;18.30;62.50
17659;DHT22;8948;51.534;8.262;2023-09-19T09:27:12;18.40;61.40
17659;DHT22;8948;51.534;8.262;2023-09-19T09:32:26;18.50;60.40
17659;DHT22;8948;51.534;8.262;2023-09-19T09:37:28;18.40;61.90
17659;DHT22;8948;51.534;8.262;2023-09-19T09:42:34;18.50;61.30
17659;DHT22;8948;51.534;8.262;2023-09-19T09:47:46;18.50;60.50
17659;DHT22;8948;51.534;8.262;2023-09-19T09:52:55;18.80;59.50
17659;DHT22;8948;51.534;8.262;2023-09-19T09:58:16;18.90;58.40
17659;DHT22;8948;51.534;8.262;2023-09-19T10:03:22;19.10;59.80
17659;DHT22;8948;51.534;8.262;2023-09-19T10:08:32;19.30;60.20
17659;DHT22;8948;51.534;8.262;2023-09-19T10:13:36;19.70;61.50
17659;DHT22;8948;51.534;8.262;2023-09-19T10:18:38;19.90;59.10
17659;DHT22;8948;51.534;8.262;2023-09-19T10:23:42;19.80;57.50
17659;DHT22;8948;51.534;8.262;2023-09-19T10:28:46;20.00;56.30
17659;DHT22;8948;51.534;8.262;2023-09-19T10:33:49;20.40;58.70
17659;DHT22;8948;51.534;8.262;2023-09-19T10:38:50;20.70;57.30
17659;DHT22;8948;51.534;8.262;2023-09-19T10:43:56;20.30;56.10
17659;DHT22;8948;51.534;8.262;2023-09-19T10:49:01;20.20;53.10
17659;DHT22;8948;51.534;8.262;2023-09-19T10:54:13;20.30;55.30
17659;DHT22;8948;51.534;8.262;2023-09-19T10:59:18;21.00;54.80
17659;DHT22;8948;51.534;8.262;2023-09-19T11:04:32;21.10;52.80
17659;DHT22;8948;51.534;8.262;2023-09-19T11:14:49;20.90;54.70
17659;DHT22;8948;51.534;8.262;2023-09-19T11:30:41;20.90;53.90
17659;DHT22;8948;51.534;8.262;2023-09-19T11:36:03;21.20;54.10
17659;DHT22;8948;51.534;8.262;2023-09-19T11:46:30;21.40;54.10
17659;DHT22;8948;51.534;8.262;2023-09-19T11:51:40;21.70;54.00
17659;DHT22;8948;51.534;8.262;2023-09-19T11:56:43;22.00;52.90
17659;DHT22;8948;51.534;8.262;2023-09-19T12:01:51;22.10;53.40
17659;DHT22;8948;51.534;8.262;2023-09-19T12:06:57;22.60;50.70
17659;DHT22;8948;51.534;8.262;2023-09-19T12:11:59;22.80;50.20
17659;DHT22;8948;51.534;8.262;2023-09-19T12:16:59;23.20;49.10
17659;DHT22;8948;51.534;8.262;2023-09-19T12:22:03;22.70;50.10
17659;DHT22;8948;51.534;8.262;2023-09-19T12:27:06;22.50;50.20
17659;DHT22;8948;51.534;8.262;2023-09-19T12:32:07;22.40;49.50
17659;DHT22;8948;51.534;8.262;2023-09-19T12:37:12;22.40;49.90
17659;DHT22;8948;51.534;8.262;2023-09-19T12:42:13;22.30;51.70
17659;DHT22;8948;51.534;8.262;2023-09-19T12:47:18;22.80;50.60
17659;DHT22;8948;51.534;8.262;2023-09-19T12:52:20;23.10;48.60
17659;DHT22;8948;51.534;8.262;2023-09-19T12:57:24;23.50;49.20
17659;DHT22;8948;51.534;8.262;2023-09-19T13:02:26;23.10;47.70
17659;DHT22;8948;51.534;8.262;2023-09-19T13:07:44;23.30;48.30
17659;DHT22;8948;51.534;8.262;2023-09-19T13:12:49;23.20;47.90
17659;DHT22;8948;51.534;8.262;2023-09-19T13:17:50;23.40;49.80
17659;DHT22;8948;51.534;8.262;2023-09-19T13:22:51;23.40;50.60
17659;DHT22;8948;51.534;8.262;2023-09-19T13:27:56;23.70;48.20
17659;DHT22;8948;51.534;8.262;2023-09-19T13:33:11;23.60;48.60
17659;DHT22;8948;51.534;8.262;2023-09-19T13:38:11;23.90;48.90
17659;DHT22;8948;51.534;8.262;2023-09-19T13:43:12;24.40;48.40
17659;DHT22;8948;51.534;8.262;2023-09-19T13:48:13;24.30;47.20
17659;DHT22;8948;51.534;8.262;2023-09-19T13:53:14;24.20;45.60
17659;DHT22;8948;51.534;8.262;2023-09-19T13:58:15;23.90;47.20
17659;DHT22;8948;51.534;8.262;2023-09-19T14:03:15;24.00;46.60
17659;DHT22;8948;51.534;8.262;2023-09-19T14:08:16;24.40;46.20
17659;DHT22;8948;51.534;8.262;2023-09-19T14:13:16;24.50;46.10
17659;DHT22;8948;51.534;8.262;2023-09-19T14:18:17;23.80;46.90
17659;DHT22;8948;51.534;8.262;2023-09-19T14:23:18;23.40;46.30
17659;DHT22;8948;51.534;8.262;2023-09-19T14:28:19;23.90;46.50
17659;DHT22;8948;51.534;8.262;2023-09-19T14:33:20;24.50;46.90
17659;DHT22;8948;51.534;8.262;2023-09-19T14:38:20;24.70;45.20
17659;DHT22;8948;51.534;8.262;2023-09-19T14:43:21;24.90;44.80
17659;DHT22;8948;51.534;8.262;2023-09-19T14:48:21;25.10;44.30
17659;DHT22;8948;51.534;8.262;2023-09-19T14:53:25;25.20;43.00
17659;DHT22;8948;51.534;8.262;2023-09-19T14:58:28;25.20;44.10
17659;DHT22;8948;51.534;8.262;2023-09-19T15:03:31;25.20;43.70
17659;DHT22;8948;51.534;8.262;2023-09-19T15:08:35;24.50;43.50
17659;DHT22;8948;51.534;8.262;2023-09-19T15:13:38;24.00;44.40
17659;DHT22;8948;51.534;8.262;2023-09-19T15:18:40;23.40;45.50
17659;DHT22;8948;51.534;8.262;2023-09-19T15:23:43;23.20;45.80
17659;DHT22;8948;51.534;8.262;2023-09-19T15:28:43;23.20;46.10
17659;DHT22;8948;51.534;8.262;2023-09-19T15:33:44;22.70;47.60
17659;DHT22;8948;51.534;8.262;2023-09-19T15:38:57;22.60;46.70
17659;DHT22;8948;51.534;8.262;2023-09-19T15:43:59;22.80;47.50
17659;DHT22;8948;51.534;8.262;2023-09-19T15:49:02;22.30;47.30
17659;DHT22;8948;51.534;8.262;2023-09-19T15:54:11;22.00;48.10
17659;DHT22;8948;51.534;8.262;2023-09-19T15:59:14;21.90;48.70
17659;DHT22;8948;51.534;8.262;2023-09-19T16:04:17;21.80;48.80
17659;DHT22;8948;51.534;8.262;2023-09-19T16:09:18;21.70;49.00
17659;DHT22;8948;51.534;8.262;2023-09-19T16:14:18;21.70;48.80
17659;DHT22;8948;51.534;8.262;2023-09-19T16:19:19;21.50;50.20
17659;DHT22;8948;51.534;8.262;2023-09-19T16:24:19;21.40;50.60
17659;DHT22;8948;51.534;8.262;2023-09-19T16:29:20;21.50;49.90
17659;DHT22;8948;51.534;8.262;2023-09-19T16:34:24;21.40;50.50
17659;DHT22;8948;51.534;8.262;2023-09-19T16:39:26;21.30;49.90
17659;DHT22;8948;51.534;8.262;2023-09-19T16:44:26;21.10;50.60
17659;DHT22;8948;51.534;8.262;2023-09-19T16:49:30;20.90;51.40
17659;DHT22;8948;51.534;8.262;2023-09-19T16:54:30;20.90;51.90
17659;DHT22;8948;51.534;8.262;2023-09-19T16:59:31;20.90;51.70
17659;DHT22;8948;51.534;8.262;2023-09-19T17:04:32;21.00;51.70
17659;DHT22;8948;51.534;8.262;2023-09-19T17:09:32;20.90;51.20
17659;DHT22;8948;51.534;8.262;2023-09-19T17:14:36;20.90;52.20
17659;DHT22;8948;51.534;8.262;2023-09-19T17:19:36;20.90;52.10
17659;DHT22;8948;51.534;8.262;2023-09-19T17:24:37;20.70;52.10
17659;DHT22;8948;51.534;8.262;2023-09-19T17:29:37;20.40;52.80
17659;DHT22;8948;51.534;8.262;2023-09-19T17:34:38;20.20;52.20
17659;DHT22;8948;51.534;8.262;2023-09-19T17:39:38;20.20;53.20
17659;DHT22;8948;51.534;8.262;2023-09-19T17:44:39;20.10;53.40
17659;DHT22;8948;51.534;8.262;2023-09-19T17:49:40;20.10;53.00
17659;DHT22;8948;51.534;8.262;2023-09-19T17:54:43;20.10;52.60
17659;DHT22;8948;51.534;8.262;2023-09-19T17:59:45;20.10;52.90
17659;DHT22;8948;51.534;8.262;2023-09-19T18:04:46;20.10;53.10
17659;DHT22;8948;51.534;8.262;2023-09-19T18:09:46;20.00;53.40
17659;DHT22;8948;51.534;8.262;2023-09-19T18:14:47;20.00;53.50
17659;DHT22;8948;51.534;8.262;2023-09-19T18:19:48;19.90;53.10
17659;DHT22;8948;51.534;8.262;2023-09-19T18:24:49;19.90;53.80
17659;DHT22;8948;51.534;8.262;2023-09-19T18:29:50;19.80;53.90
17659;DHT22;8948;51.534;8.262;2023-09-19T18:34:51;19.70;54.30
17659;DHT22;8948;51.534;8.262;2023-09-19T18:39:52;19.60;54.20
17659;DHT22;8948;51.534;8.262;2023-09-19T18:44:53;19.60;54.40
17659;DHT22;8948;51.534;8.262;2023-09-19T18:49:53;19.60;54.60
17659;DHT22;8948;51.534;8.262;2023-09-19T18:54:54;19.50;54.20
17659;DHT22;8948;51.534;8.262;2023-09-19T18:59:55;19.50;54.80
17659;DHT22;8948;51.534;8.262;2023-09-19T19:04:56;19.50;55.00
17659;DHT22;8948;51.534;8.262;2023-09-19T19:09:58;19.40;55.20
17659;DHT22;8948;51.534;8.262;2023-09-19T19:14:59;19.40;55.30
17659;DHT22;8948;51.534;8.262;2023-09-19T19:20:01;19.60;54.80
17659;DHT22;8948;51.534;8.262;2023-09-19T19:25:05;19.40;55.00
17659;DHT22;8948;51.534;8.262;2023-09-19T19:30:06;19.50;55.30
17659;DHT22;8948;51.534;8.262;2023-09-19T19:35:07;19.40;55.20
17659;DHT22;8948;51.534;8.262;2023-09-19T19:40:09;19.40;55.30
17659;DHT22;8948;51.534;8.262;2023-09-19T19:45:10;19.40;55.60
17659;DHT22;8948;51.534;8.262;2023-09-19T19:50:11;19.30;56.60
17659;DHT22;8948;51.534;8.262;2023-09-19T19:55:12;19.20;56.00
17659;DHT22;8948;51.534;8.262;2023-09-19T20:00:12;19.20;56.20
17659;DHT22;8948;51.534;8.262;2023-09-19T20:05:18;19.10;56.90
17659;DHT22;8948;51.534;8.262;2023-09-19T20:10:19;19.10;56.40
17659;DHT22;8948;51.534;8.262;2023-09-19T20:15:22;19.10;56.50
17659;DHT22;8948;51.534;8.262;2023-09-19T20:20:25;19.00;56.30
17659;DHT22;8948;51.534;8.262;2023-09-19T20:25:28;19.00;56.70
17659;DHT22;8948;51.534;8.262;2023-09-19T20:30:28;18.90;57.20
17659;DHT22;8948;51.534;8.262;2023-09-19T20:35:29;18.80;56.80
17659;DHT22;8948;51.534;8.262;2023-09-19T20:40:29;18.80;57.50
17659;DHT22;8948;51.534;8.262;2023-09-19T20:45:31;18.80;57.30
17659;DHT22;8948;51.534;8.262;2023-09-19T20:50:34;18.90;57.60
17659;DHT22;8948;51.534;8.262;2023-09-19T20:55:34;18.80;57.30
17659;DHT22;8948;51.534;8.262;2023-09-19T21:00:40;18.80;57.30
17659;DHT22;8948;51.534;8.262;2023-09-19T21:05:41;18.90;56.90
17659;DHT22;8948;51.534;8.262;2023-09-19T21:10:42;18.80;57.40
17659;DHT22;8948;51.534;8.262;2023-09-19T21:15:42;18.80;57.40
17659;DHT22;8948;51.534;8.262;2023-09-19T21:20:43;18.80;58.10
17659;DHT22;8948;51.534;8.262;2023-09-19T21:25:53;18.80;56.60
17659;DHT22;8948;51.534;8.262;2023-09-19T21:36:06;18.70;58.30
17659;DHT22;8948;51.534;8.262;2023-09-19T21:41:11;18.70;58.10
17659;DHT22;8948;51.534;8.262;2023-09-19T21:46:12;18.70;58.60
17659;DHT22;8948;51.534;8.262;2023-09-19T21:51:12;18.60;58.50
17659;DHT22;8948;51.534;8.262;2023-09-19T21:56:13;18.60;58.70
17659;DHT22;8948;51.534;8.262;2023-09-19T22:01:15;18.50;59.30
17659;DHT22;8948;51.534;8.262;2023-09-19T22:06:22;18.50;59.00
17659;DHT22;8948;51.534;8.262;2023-09-19T22:11:23;18.50;59.70
17659;DHT22;8948;51.534;8.262;2023-09-19T22:16:24;18.50;59.30
17659;DHT22;8948;51.534;8.262;2023-09-19T22:21:25;18.30;60.20
17659;DHT22;8948;51.534;8.262;2023-09-19T22:26:38;18.30;60.40
17659;DHT22;8948;51.534;8.262;2023-09-19T22:31:39;18.20;60.50
17659;DHT22;8948;51.534;8.262;2023-09-19T22:36:42;18.20;60.30
17659;DHT22;8948;51.534;8.262;2023-09-19T22:41:43;18.10;61.30
17659;DHT22;8948;51.534;8.262;2023-09-19T22:46:43;18.20;61.30
17659;DHT22;8948;51.534;8.262;2023-09-19T22:51:48;18.30;60.70
17659;DHT22;8948;51.534;8.262;2023-09-19T22:56:55;18.40;60.80
17659;DHT22;8948;51.534;8.262;2023-09-19T23:01:55;18.30;61.20
17659;DHT22;8948;51.534;8.262;2023-09-19T23:06:57;18.20;61.40
17659;DHT22;8948;51.534;8.262;2023-09-19T23:12:05;18.20;61.10
17659;DHT22;8948;51.534;8.262;2023-09-19T23:17:19;18.20;61.10
17659;DHT22;8948;51.534;8.262;2023-09-19T23:22:23;18.10;61.50
17659;DHT22;8948;51.534;8.262;2023-09-19T23:27:25;18.10;61.40
17659;DHT22;8948;51.534;8.262;2023-09-19T23:32:27;18.00;62.40
17659;DHT22;8948;51.534;8.262;2023-09-19T23:37:28;18.00;61.30
17659;DHT22;8948;51.534;8.262;2023-09-19T23:42:29;18.00;62.30
17659;DHT22;8948;51.534;8.262;2023-09-19T23:47:29;17.90;62.60
17659;DHT22;8948;51.534;8.262;2023-09-19T23:52:30;17.90;62.80
17659;DHT22;8948;51.534;8.262;2023-09-19T23:57:31;17.90;63.10
